createdAt,value
2018-09-23T00:01:24.508Z,23.90
2018-09-23T00:03:53.018Z,24.00
2018-09-23T00:06:21.469Z,23.90
2018-09-23T00:08:50.068Z,23.90
2018-09-23T00:11:18.523Z,23.90
2018-09-23T00:13:46.993Z,23.90
2018-09-23T00:16:15.439Z,23.90
2018-09-23T00:18:43.890Z,23.90
2018-09-23T00:21:12.408Z,23.90
2018-09-23T00:23:40.908Z,23.80
2018-09-23T00:26:09.337Z,23.90
2018-09-23T00:28:37.800Z,23.90
2018-09-23T00:31:06.260Z,23.80
2018-09-23T00:33:34.681Z,23.80
2018-09-23T00:36:03.100Z,23.80
2018-09-23T00:38:31.500Z,23.80
2018-09-23T00:41:00.012Z,23.80
2018-09-23T00:43:28.450Z,23.80
2018-09-23T00:45:56.912Z,23.80
2018-09-23T00:48:25.358Z,23.80
2018-09-23T00:50:53.828Z,23.80
2018-09-23T00:53:22.255Z,23.80
2018-09-23T00:55:50.793Z,23.80
2018-09-23T00:58:19.488Z,23.80
2018-09-23T01:00:47.915Z,23.80
2018-09-23T01:03:16.443Z,23.80
2018-09-23T01:05:44.877Z,23.80
2018-09-23T01:08:13.312Z,23.70
2018-09-23T01:10:41.761Z,23.80
2018-09-23T01:13:10.233Z,23.70
2018-09-23T01:15:38.657Z,23.70
2018-09-23T01:18:07.130Z,23.80
2018-09-23T01:20:35.684Z,23.70
2018-09-23T01:23:04.157Z,23.70
2018-09-23T01:25:32.880Z,23.70
2018-09-23T01:28:01.309Z,23.70
2018-09-23T01:30:29.750Z,23.70
2018-09-23T01:32:58.215Z,23.70
2018-09-23T01:35:26.697Z,23.70
2018-09-23T01:37:55.145Z,23.70
2018-09-23T01:40:23.594Z,23.70
2018-09-23T01:42:52.050Z,23.70
2018-09-23T01:45:20.476Z,23.70
2018-09-23T01:47:48.963Z,23.70
2018-09-23T01:50:17.377Z,23.70
2018-09-23T01:52:45.905Z,23.70
2018-09-23T01:55:14.394Z,23.70
2018-09-23T01:57:42.859Z,23.70
2018-09-23T02:00:11.419Z,23.60
2018-09-23T02:02:39.865Z,23.70
2018-09-23T02:05:08.365Z,23.70
2018-09-23T02:07:36.822Z,23.60
2018-09-23T02:10:05.306Z,23.60
2018-09-23T02:12:33.826Z,23.70
2018-09-23T02:15:02.280Z,23.60
2018-09-23T02:17:30.735Z,23.70
2018-09-23T02:19:59.216Z,23.70
2018-09-23T02:22:27.647Z,23.60
2018-09-23T02:24:56.329Z,23.60
2018-09-23T02:27:24.747Z,23.60
2018-09-23T02:29:53.562Z,23.60
2018-09-23T02:32:22.045Z,23.60
2018-09-23T02:34:50.537Z,23.60
2018-09-23T02:37:19.005Z,23.60
2018-09-23T02:39:47.478Z,23.60
2018-09-23T02:42:15.940Z,23.60
2018-09-23T02:44:44.404Z,23.60
2018-09-23T02:47:12.866Z,23.60
2018-09-23T02:49:41.373Z,23.60
2018-09-23T02:52:09.849Z,23.60
2018-09-23T02:54:38.293Z,23.60
2018-09-23T02:57:06.945Z,23.60
2018-09-23T02:59:35.383Z,23.60
2018-09-23T03:02:03.977Z,23.50
2018-09-23T03:04:32.418Z,23.50
2018-09-23T03:07:01.002Z,23.60
2018-09-23T03:09:29.523Z,23.50
2018-09-23T03:11:58.104Z,23.50
2018-09-23T03:14:26.678Z,23.50
2018-09-23T03:16:55.170Z,23.50
2018-09-23T03:19:23.625Z,23.50
2018-09-23T03:21:52.084Z,23.50
2018-09-23T03:24:20.568Z,23.50
2018-09-23T03:26:48.989Z,23.50
2018-09-23T03:29:17.459Z,23.50
2018-09-23T03:31:45.911Z,23.50
2018-09-23T03:34:14.361Z,23.50
2018-09-23T03:36:42.822Z,23.50
2018-09-23T03:39:11.298Z,23.50
2018-09-23T03:41:39.757Z,23.50
2018-09-23T03:44:08.477Z,23.50
2018-09-23T03:46:36.949Z,23.50
2018-09-23T03:49:05.441Z,23.40
2018-09-23T03:51:33.892Z,23.40
2018-09-23T03:54:02.353Z,23.40
2018-09-23T03:56:30.786Z,23.40
2018-09-23T03:58:59.217Z,23.40
2018-09-23T04:01:27.701Z,23.40
2018-09-23T04:03:56.255Z,23.40
2018-09-23T04:06:24.691Z,23.40
2018-09-23T04:08:53.149Z,23.40
2018-09-23T04:11:21.590Z,23.40
2018-09-23T04:13:50.046Z,23.40
2018-09-23T04:16:18.492Z,23.40
2018-09-23T04:18:46.968Z,23.40
2018-09-23T04:21:15.446Z,23.40
2018-09-23T04:23:43.917Z,23.40
2018-09-23T04:26:12.384Z,23.40
2018-09-23T04:28:40.839Z,23.40
2018-09-23T04:31:09.405Z,23.40
2018-09-23T04:33:38.074Z,23.30
2018-09-23T04:36:06.524Z,23.30
2018-09-23T04:38:35.009Z,23.30
2018-09-23T04:41:03.458Z,23.30
2018-09-23T04:43:31.919Z,23.30
2018-09-23T04:46:01.112Z,23.30
2018-09-23T04:48:29.699Z,23.30
2018-09-23T04:50:58.293Z,23.30
2018-09-23T04:53:27.384Z,23.30
2018-09-23T04:55:56.016Z,23.30
2018-09-23T04:58:24.469Z,23.30
2018-09-23T05:00:52.941Z,23.30
2018-09-23T05:03:22.089Z,23.30
2018-09-23T05:05:50.626Z,23.30
2018-09-23T05:08:19.099Z,23.30
2018-09-23T05:10:47.561Z,23.30
2018-09-23T05:13:16.090Z,23.30
2018-09-23T05:15:44.574Z,23.30
2018-09-23T05:18:13.031Z,23.30
2018-09-23T05:20:41.502Z,23.30
2018-09-23T05:23:09.963Z,23.30
2018-09-23T05:25:39.206Z,23.30
2018-09-23T05:28:07.665Z,23.30
2018-09-23T05:30:36.164Z,23.30
2018-09-23T05:33:04.622Z,23.30
2018-09-23T05:35:33.089Z,23.30
2018-09-23T05:38:01.533Z,23.30
2018-09-23T05:40:29.966Z,23.30
2018-09-23T05:42:58.478Z,23.20
2018-09-23T05:45:26.939Z,23.30
2018-09-23T05:47:55.376Z,23.30
2018-09-23T05:50:23.798Z,23.20
2018-09-23T05:52:52.243Z,23.30
2018-09-23T05:55:20.656Z,23.30
2018-09-23T05:57:49.089Z,23.30
2018-09-23T06:00:18.215Z,23.30
2018-09-23T06:02:46.653Z,23.30
2018-09-23T06:05:15.081Z,23.20
2018-09-23T06:07:43.845Z,23.20
2018-09-23T06:10:12.872Z,23.20
2018-09-23T06:12:41.385Z,23.30
2018-09-23T06:15:09.960Z,23.30
2018-09-23T06:17:38.497Z,23.30
2018-09-23T06:20:06.944Z,23.30
2018-09-23T06:22:35.395Z,23.30
2018-09-23T06:25:04.270Z,23.30
2018-09-23T06:27:32.776Z,23.30
2018-09-23T06:30:01.294Z,23.30
2018-09-23T06:32:29.729Z,23.30
2018-09-23T06:34:58.161Z,23.30
2018-09-23T06:37:26.632Z,23.30
2018-09-23T06:39:55.280Z,23.30
2018-09-23T06:42:23.736Z,23.30
2018-09-23T06:44:52.860Z,23.30
2018-09-23T06:47:21.370Z,23.30
2018-09-23T06:49:49.858Z,23.30
2018-09-23T06:52:18.418Z,23.20
2018-09-23T06:54:46.922Z,23.20
2018-09-23T06:57:15.466Z,23.20
2018-09-23T06:59:43.931Z,23.20
2018-09-23T07:02:12.376Z,23.20
2018-09-23T07:04:40.893Z,23.10
2018-09-23T07:07:09.177Z,23.20
2018-09-23T07:09:37.755Z,23.20
2018-09-23T07:12:06.142Z,23.20
2018-09-23T07:14:34.536Z,23.20
2018-09-23T07:17:02.886Z,23.10
2018-09-23T07:19:31.306Z,23.20
2018-09-23T07:21:59.753Z,23.20
2018-09-23T07:24:28.124Z,23.10
2018-09-23T07:26:56.515Z,23.10
2018-09-23T07:29:25.238Z,23.10
2018-09-23T07:31:53.615Z,23.10
2018-09-23T07:34:21.978Z,23.10
2018-09-23T07:36:50.438Z,23.10
2018-09-23T07:39:18.811Z,23.20
2018-09-23T07:41:47.228Z,23.20
2018-09-23T07:44:15.650Z,23.20
2018-09-23T07:46:44.082Z,23.20
2018-09-23T07:49:12.514Z,23.20
2018-09-23T07:51:40.998Z,23.30
2018-09-23T07:54:09.448Z,23.30
2018-09-23T07:56:37.943Z,23.30
2018-09-23T07:59:06.541Z,23.40
2018-09-23T08:01:35.037Z,23.40
2018-09-23T08:04:03.505Z,23.40
2018-09-23T08:06:31.959Z,23.30
2018-09-23T08:09:00.470Z,23.30
2018-09-23T08:11:29.016Z,23.40
2018-09-23T08:13:57.918Z,23.30
2018-09-23T08:16:26.131Z,23.40
2018-09-23T08:18:54.642Z,23.40
2018-09-23T08:21:23.201Z,23.30
2018-09-23T08:23:51.732Z,23.30
2018-09-23T08:26:20.373Z,23.30
2018-09-23T08:28:48.850Z,23.40
2018-09-23T08:31:17.549Z,23.30
2018-09-23T08:33:46.043Z,23.40
2018-09-23T08:36:14.689Z,23.30
2018-09-23T08:38:43.310Z,23.30
2018-09-23T08:41:11.760Z,23.30
2018-09-23T08:43:40.305Z,23.30
2018-09-23T08:46:08.825Z,23.30
2018-09-23T08:48:37.270Z,23.30
2018-09-23T08:51:05.757Z,23.30
2018-09-23T08:53:34.383Z,23.30
2018-09-23T08:56:02.922Z,23.30
2018-09-23T08:58:31.720Z,23.30
2018-09-23T09:01:00.149Z,23.30
2018-09-23T09:03:28.674Z,23.30
2018-09-23T09:05:57.153Z,23.30
2018-09-23T09:08:25.597Z,23.30
2018-09-23T09:10:54.040Z,23.30
2018-09-23T09:13:22.598Z,23.30
2018-09-23T09:15:51.068Z,23.30
2018-09-23T09:18:19.606Z,23.30
2018-09-23T09:20:48.077Z,23.30
2018-09-23T09:23:16.533Z,23.30
2018-09-23T09:25:44.971Z,23.30
2018-09-23T09:28:13.515Z,23.30
2018-09-23T09:30:42.008Z,23.30
2018-09-23T09:33:10.753Z,23.30
2018-09-23T09:35:39.304Z,23.30
2018-09-23T09:38:07.820Z,23.30
2018-09-23T09:41:40.289Z,23.30
2018-09-23T09:44:09.298Z,23.30
2018-09-23T09:46:37.922Z,23.30
2018-09-23T09:49:07.551Z,23.20
2018-09-23T09:51:36.021Z,23.30
2018-09-23T09:54:04.480Z,23.30
2018-09-23T09:56:32.974Z,23.30
2018-09-23T09:59:01.677Z,23.20
2018-09-23T10:01:30.119Z,23.20
2018-09-23T10:03:58.916Z,23.30
2018-09-23T10:06:27.558Z,23.30
2018-09-23T10:08:55.991Z,23.20
2018-09-23T10:11:24.467Z,23.30
2018-09-23T10:13:53.018Z,23.30
2018-09-23T10:16:21.485Z,23.30
2018-09-23T10:18:50.187Z,23.30
2018-09-23T10:21:18.981Z,23.30
2018-09-23T10:23:47.520Z,23.30
2018-09-23T10:26:16.087Z,23.30
2018-09-23T10:28:44.537Z,23.20
2018-09-23T10:31:13.066Z,23.30
2018-09-23T10:33:41.644Z,23.30
2018-09-23T10:36:10.205Z,23.30
2018-09-23T10:38:38.881Z,23.30
2018-09-23T10:41:07.369Z,23.30
2018-09-23T10:43:35.854Z,23.30
2018-09-23T10:46:04.286Z,23.30
2018-09-23T10:48:32.800Z,23.30
2018-09-23T10:51:01.314Z,23.40
2018-09-23T10:53:29.837Z,23.40
2018-09-23T10:55:58.480Z,23.40
2018-09-23T10:58:26.966Z,23.40
2018-09-23T11:00:55.430Z,23.40
2018-09-23T11:03:23.908Z,23.40
2018-09-23T11:05:52.372Z,23.30
2018-09-23T11:08:20.802Z,23.40
2018-09-23T11:10:49.354Z,23.30
2018-09-23T11:13:18.841Z,23.30
2018-09-23T11:15:47.584Z,23.40
2018-09-23T11:18:16.182Z,23.40
2018-09-23T11:20:44.859Z,23.30
2018-09-23T11:23:13.345Z,23.30
2018-09-23T11:25:41.771Z,23.30
2018-09-23T11:28:10.196Z,23.30
2018-09-23T11:30:38.638Z,23.30
2018-09-23T11:33:07.087Z,23.30
2018-09-23T11:35:35.513Z,23.30
2018-09-23T11:38:03.990Z,23.40
2018-09-23T11:40:32.462Z,23.30
2018-09-23T11:43:00.943Z,23.30
2018-09-23T11:45:29.508Z,23.30
2018-09-23T11:47:57.976Z,23.40
2018-09-23T11:50:26.420Z,23.30
2018-09-23T11:52:54.913Z,23.40
2018-09-23T11:55:23.415Z,23.30
2018-09-23T11:59:21.313Z,23.40
2018-09-23T12:01:49.845Z,23.30
2018-09-23T12:04:18.540Z,23.30
2018-09-23T12:06:47.893Z,23.40
2018-09-23T12:09:16.401Z,23.40
2018-09-23T12:11:44.818Z,23.40
2018-09-23T12:14:13.289Z,23.40
2018-09-23T12:16:41.919Z,23.40
2018-09-23T12:19:10.394Z,23.40
2018-09-23T12:21:38.982Z,23.40
2018-09-23T12:24:07.445Z,23.40
2018-09-23T12:26:35.923Z,23.40
2018-09-23T12:29:04.419Z,23.40
2018-09-23T12:31:32.944Z,23.40
2018-09-23T12:34:01.434Z,23.40
2018-09-23T12:36:29.916Z,23.40
2018-09-23T12:38:58.377Z,23.40
2018-09-23T12:41:26.821Z,23.40
2018-09-23T12:43:55.265Z,23.40
2018-09-23T12:46:23.730Z,23.40
2018-09-23T12:48:52.162Z,23.40
2018-09-23T12:51:20.580Z,23.40
2018-09-23T12:53:49.043Z,23.40
2018-09-23T12:56:17.513Z,23.40
2018-09-23T12:58:45.982Z,23.40
2018-09-23T13:01:14.462Z,23.40
2018-09-23T13:03:43.036Z,23.40
2018-09-23T13:06:11.574Z,23.40
2018-09-23T13:08:40.079Z,23.40
2018-09-23T13:11:08.544Z,23.40
2018-09-23T13:13:36.977Z,23.50
2018-09-23T13:16:05.634Z,23.50
2018-09-23T13:18:34.366Z,23.50
2018-09-23T13:21:04.129Z,23.60
2018-09-23T13:23:32.586Z,23.60
2018-09-23T13:26:01.372Z,23.60
2018-09-23T13:28:30.004Z,23.70
2018-09-23T13:30:58.976Z,23.70
2018-09-23T13:33:27.559Z,23.70
2018-09-23T13:35:56.026Z,23.80
2018-09-23T13:38:25.480Z,23.80
2018-09-23T13:40:53.954Z,23.80
2018-09-23T13:43:22.437Z,23.90
2018-09-23T13:45:51.211Z,23.90
2018-09-23T13:48:19.701Z,23.90
2018-09-23T13:50:48.395Z,23.90
2018-09-23T13:53:17.074Z,23.90
2018-09-23T13:55:45.790Z,23.90
2018-09-23T13:58:14.252Z,23.90
2018-09-23T14:00:42.718Z,23.90
2018-09-23T14:03:11.242Z,23.90
2018-09-23T14:05:39.673Z,23.90
2018-09-23T14:08:08.237Z,23.80
2018-09-23T14:10:36.691Z,23.80
2018-09-23T14:13:05.289Z,23.80
2018-09-23T14:15:33.728Z,23.80
2018-09-23T14:18:02.197Z,23.80
2018-09-23T14:20:30.756Z,23.80
2018-09-23T14:22:59.234Z,23.80
2018-09-23T14:25:27.728Z,23.80
2018-09-23T14:27:56.180Z,23.70
2018-09-23T14:30:24.735Z,23.70
2018-09-23T14:32:53.192Z,23.70
2018-09-23T14:35:21.671Z,23.70
2018-09-23T14:37:50.501Z,23.70
2018-09-23T14:40:18.925Z,23.70
2018-09-23T14:42:47.505Z,23.70
2018-09-23T14:45:16.057Z,23.70
2018-09-23T14:47:44.530Z,23.70
2018-09-23T14:50:13.034Z,23.70
2018-09-23T14:52:41.550Z,23.70
2018-09-23T14:55:10.094Z,23.70
2018-09-23T14:57:38.473Z,23.70
2018-09-23T15:00:06.999Z,23.70
2018-09-23T15:02:35.433Z,23.70
2018-09-23T15:05:04.087Z,23.70
2018-09-23T15:07:32.776Z,23.70
2018-09-23T15:10:01.230Z,23.70
2018-09-23T15:12:29.743Z,23.70
2018-09-23T15:14:58.413Z,23.70
2018-09-23T15:17:27.077Z,23.70
2018-09-23T15:19:56.690Z,23.80
2018-09-23T15:22:25.258Z,23.70
2018-09-23T15:24:53.743Z,23.80
2018-09-23T15:27:22.454Z,23.80
2018-09-23T15:29:51.140Z,23.80
2018-09-23T15:32:19.776Z,23.80
2018-09-23T15:34:48.344Z,23.70
2018-09-23T15:37:16.839Z,23.70
2018-09-23T15:39:45.524Z,23.70
2018-09-23T15:42:14.434Z,23.70
2018-09-23T15:44:42.938Z,23.80
2018-09-23T15:47:11.365Z,23.70
2018-09-23T15:49:39.849Z,23.80
2018-09-23T15:52:08.776Z,23.80
2018-09-23T15:54:37.309Z,23.80
2018-09-23T15:57:05.783Z,23.80
2018-09-23T15:59:34.430Z,23.80
2018-09-23T16:02:02.956Z,23.70
2018-09-23T16:04:31.473Z,23.70
2018-09-23T16:07:00.423Z,23.70
2018-09-23T16:09:28.885Z,23.70
2018-09-23T16:11:57.365Z,23.70
2018-09-23T16:14:25.922Z,23.70
2018-09-23T16:16:54.387Z,23.70
2018-09-23T16:19:23.003Z,23.70
2018-09-23T16:21:51.489Z,23.60
2018-09-23T16:24:20.309Z,23.60
2018-09-23T16:26:49.967Z,23.60
2018-09-23T16:29:18.516Z,23.60
2018-09-23T16:31:47.124Z,23.60
2018-09-23T16:34:15.599Z,23.50
2018-09-23T16:36:44.277Z,23.50
2018-09-23T16:39:12.716Z,23.50
2018-09-23T16:41:41.152Z,23.50
2018-09-23T16:44:09.832Z,23.40
2018-09-23T16:46:38.315Z,23.40
2018-09-23T16:49:06.785Z,23.40
2018-09-23T16:51:35.316Z,23.40
2018-09-23T16:54:03.770Z,23.40
2018-09-23T16:56:32.188Z,23.30
2018-09-23T16:59:00.991Z,23.40
2018-09-23T17:01:29.500Z,23.40
2018-09-23T17:03:57.969Z,23.40
2018-09-23T17:06:26.424Z,23.40
2018-09-23T17:08:54.851Z,23.40
2018-09-23T17:11:23.296Z,23.30
2018-09-23T17:13:51.856Z,23.30
2018-09-23T17:16:21.356Z,23.30
2018-09-23T17:18:49.851Z,23.30
2018-09-23T17:21:18.366Z,23.40
2018-09-23T17:23:46.898Z,23.30
2018-09-23T17:26:15.512Z,23.40
2018-09-23T17:28:44.044Z,23.30
2018-09-23T17:31:12.464Z,23.30
2018-09-23T17:33:40.887Z,23.30
2018-09-23T17:36:09.333Z,23.30
2018-09-23T17:38:37.951Z,23.30
2018-09-23T17:41:06.586Z,23.40
2018-09-23T17:43:35.049Z,23.30
2018-09-23T17:46:03.522Z,23.40
2018-09-23T17:48:32.040Z,23.40
2018-09-23T17:51:00.478Z,23.40
2018-09-23T17:53:28.931Z,23.30
2018-09-23T17:55:57.391Z,23.30
2018-09-23T17:58:25.882Z,23.40
2018-09-23T18:00:54.280Z,23.40
2018-09-23T18:03:22.746Z,23.30
2018-09-23T18:05:51.191Z,23.30
2018-09-23T18:08:19.697Z,23.30
2018-09-23T18:10:48.088Z,23.30
2018-09-23T18:13:16.538Z,23.40
2018-09-23T18:15:44.937Z,23.40
2018-09-23T18:18:13.349Z,23.40
2018-09-23T18:20:41.767Z,23.40
2018-09-23T18:23:10.229Z,23.40
2018-09-23T18:25:38.699Z,23.40
2018-09-23T18:28:07.325Z,23.40
2018-09-23T18:30:35.862Z,23.40
2018-09-23T18:33:04.372Z,23.30
2018-09-23T18:35:32.853Z,23.30
2018-09-23T18:38:01.295Z,23.30
2018-09-23T18:40:29.729Z,23.30
2018-09-23T18:42:58.209Z,23.30
2018-09-23T18:45:27.645Z,23.30
2018-09-23T18:47:56.650Z,23.30
2018-09-23T18:50:25.117Z,23.30
2018-09-23T18:52:58.816Z,23.30
2018-09-23T18:55:32.553Z,23.30
2018-09-23T18:58:01.441Z,23.30
2018-09-23T19:00:29.914Z,23.30
2018-09-23T19:02:58.382Z,23.30
2018-09-23T19:05:26.806Z,23.30
2018-09-23T19:07:55.336Z,23.30
2018-09-23T19:10:23.818Z,23.30
2018-09-23T19:12:57.490Z,23.30
2018-09-23T19:15:26.056Z,23.30
2018-09-23T19:17:54.477Z,23.30
2018-09-23T19:20:23.031Z,23.30
2018-09-23T19:22:56.899Z,23.30
2018-09-23T19:25:25.365Z,23.30
2018-09-23T19:27:53.822Z,23.30
2018-09-23T19:30:22.402Z,23.30
2018-09-23T19:32:51.021Z,23.30
2018-09-23T19:35:19.422Z,23.30
2018-09-23T19:37:47.978Z,23.30
2018-09-23T19:40:16.431Z,23.30
2018-09-23T19:42:45.125Z,23.30
2018-09-23T19:45:13.581Z,23.30
2018-09-23T19:47:41.980Z,23.30
2018-09-23T19:50:10.401Z,23.30
2018-09-23T19:52:38.864Z,23.30
2018-09-23T19:55:07.348Z,23.30
2018-09-23T19:57:35.831Z,23.30
2018-09-23T20:00:04.276Z,23.30
2018-09-23T20:02:32.698Z,23.30
2018-09-23T20:05:01.148Z,23.30
2018-09-23T20:07:29.619Z,23.30
2018-09-23T20:09:58.057Z,23.20
2018-09-23T20:12:26.503Z,23.20
2018-09-23T20:14:55.133Z,23.30
2018-09-23T20:17:23.580Z,23.30
2018-09-23T20:19:52.024Z,23.20
2018-09-23T20:22:20.495Z,23.20
2018-09-23T20:24:48.958Z,23.20
2018-09-23T20:27:17.444Z,23.20
2018-09-23T20:29:46.903Z,23.20
2018-09-23T20:32:15.820Z,23.20
2018-09-23T20:34:45.338Z,23.20
2018-09-23T20:37:13.814Z,23.20
2018-09-23T20:39:42.246Z,23.20
2018-09-23T20:42:10.697Z,23.20
2018-09-23T20:44:39.220Z,23.10
2018-09-23T20:47:07.714Z,23.20
2018-09-23T20:49:36.166Z,23.20
2018-09-23T20:52:04.638Z,23.20
2018-09-23T20:54:33.189Z,23.20
2018-09-23T20:57:01.654Z,23.20
2018-09-23T20:59:30.146Z,23.10
2018-09-23T21:01:58.688Z,23.10
2018-09-23T21:04:27.076Z,23.10
2018-09-23T21:06:55.567Z,23.20
2018-09-23T21:09:24.013Z,23.10
2018-09-23T21:11:52.433Z,23.10
2018-09-23T21:14:20.887Z,23.10
2018-09-23T21:16:49.318Z,23.10
2018-09-23T21:19:17.788Z,23.20
2018-09-23T21:21:46.336Z,23.10
2018-09-23T21:24:14.790Z,23.10
2018-09-23T21:26:43.229Z,23.10
2018-09-23T21:29:11.686Z,23.10
2018-09-23T21:31:40.109Z,23.10
2018-09-23T21:34:08.704Z,23.10
2018-09-23T21:36:37.161Z,23.10
2018-09-23T21:39:06.838Z,23.10
2018-09-23T21:41:35.205Z,23.10
2018-09-23T21:44:03.652Z,23.10
2018-09-23T21:46:32.054Z,23.10
2018-09-23T21:49:00.437Z,23.10
2018-09-23T21:51:28.815Z,23.00
2018-09-23T21:53:57.224Z,23.00
2018-09-23T21:56:25.672Z,23.00
2018-09-23T21:58:54.153Z,23.00
2018-09-23T22:01:22.629Z,23.00
2018-09-23T22:03:51.133Z,23.00
2018-09-23T22:06:19.569Z,23.00
2018-09-23T22:08:48.014Z,23.00
2018-09-23T22:11:16.463Z,22.90
2018-09-23T22:13:44.934Z,22.90
2018-09-23T22:16:13.373Z,22.90
2018-09-23T22:18:42.026Z,22.90
2018-09-23T22:21:10.511Z,22.90
2018-09-23T22:23:38.952Z,22.90
2018-09-23T22:26:07.453Z,22.90
2018-09-23T22:28:36.304Z,22.90
2018-09-23T22:31:04.837Z,22.90
2018-09-23T22:33:33.305Z,22.90
2018-09-23T22:36:02.047Z,22.90
2018-09-23T22:38:30.486Z,22.90
2018-09-23T22:40:58.925Z,22.80
2018-09-23T22:43:27.398Z,22.80
2018-09-23T22:45:55.909Z,22.80
2018-09-23T22:48:24.392Z,22.80
2018-09-23T22:50:52.882Z,22.80
2018-09-23T22:53:21.348Z,22.80
2018-09-23T22:55:49.810Z,22.80
2018-09-23T22:58:18.281Z,22.80
2018-09-23T23:00:46.760Z,22.80
2018-09-23T23:03:15.221Z,22.70
2018-09-23T23:05:43.685Z,22.70
2018-09-23T23:08:12.196Z,22.70
2018-09-23T23:10:40.694Z,22.70
2018-09-23T23:13:09.193Z,22.70
2018-09-23T23:15:37.703Z,22.70
2018-09-23T23:18:06.206Z,22.70
2018-09-23T23:20:34.681Z,22.70
2018-09-23T23:23:03.177Z,22.70
2018-09-23T23:25:31.644Z,22.70
2018-09-23T23:28:00.134Z,22.70
2018-09-23T23:30:28.584Z,22.70
2018-09-23T23:32:57.023Z,22.70
2018-09-23T23:35:25.501Z,22.70
2018-09-23T23:37:54.016Z,22.60
2018-09-23T23:40:22.460Z,22.70
2018-09-23T23:42:50.930Z,22.60
2018-09-23T23:45:19.350Z,22.70
2018-09-23T23:47:47.837Z,22.60
2018-09-23T23:50:16.285Z,22.60
2018-09-23T23:52:44.713Z,22.60
2018-09-23T23:55:13.175Z,22.60
2018-09-23T23:57:41.645Z,22.60
